sensor_id;sensor_type;location;lat;lon;timestamp;pressure;altitude;pressure_sealevel;temperature;humidity
73332;BME280;61560;33.718;73.040;2022-10-16T00:01:17;94885.00;;;19.91;63.93
73332;BME280;61560;33.718;73.040;2022-10-16T00:03:45;94882.34;;;19.87;63.80
73332;BME280;61560;33.718;73.040;2022-10-16T00:06:15;94885.44;;;19.89;63.52
73332;BME280;61560;33.718;73.040;2022-10-16T00:08:43;94881.25;;;19.94;63.17
73332;BME280;61560;33.718;73.040;2022-10-16T00:11:13;94880.47;;;19.93;63.72
73332;BME280;61560;33.718;73.040;2022-10-16T00:13:43;94882.97;;;19.91;63.81
73332;BME280;61560;33.718;73.040;2022-10-16T00:16:11;94887.00;;;19.90;64.04
73332;BME280;61560;33.718;73.040;2022-10-16T00:18:38;94888.50;;;19.91;64.03
73332;BME280;61560;33.718;73.040;2022-10-16T00:21:14;94890.25;;;19.89;64.19
73332;BME280;61560;33.718;73.040;2022-10-16T00:23:41;94885.44;;;19.89;64.35
73332;BME280;61560;33.718;73.040;2022-10-16T00:26:11;94887.91;;;19.87;64.53
73332;BME280;61560;33.718;73.040;2022-10-16T00:28:39;94885.63;;;19.86;64.68
73332;BME280;61560;33.718;73.040;2022-10-16T00:31:10;94889.94;;;19.87;64.77
73332;BME280;61560;33.718;73.040;2022-10-16T00:33:38;94892.72;;;19.87;64.77
73332;BME280;61560;33.718;73.040;2022-10-16T00:36:07;94896.25;;;19.87;64.74
73332;BME280;61560;33.718;73.040;2022-10-16T00:38:37;94893.47;;;19.87;65.10
73332;BME280;61560;33.718;73.040;2022-10-16T00:41:09;94891.94;;;19.86;65.18
73332;BME280;61560;33.718;73.040;2022-10-16T00:43:51;94894.88;;;19.83;65.28
73332;BME280;61560;33.718;73.040;2022-10-16T00:49:13;94901.53;;;19.85;64.87
73332;BME280;61560;33.718;73.040;2022-10-16T00:54:15;94902.47;;;19.82;64.62
73332;BME280;61560;33.718;73.040;2022-10-16T00:56:44;94915.19;;;19.74;64.94
73332;BME280;61560;33.718;73.040;2022-10-16T00:59:19;94911.63;;;19.74;64.90
73332;BME280;61560;33.718;73.040;2022-10-16T02:02:09;95004.59;;;20.05;64.94
73332;BME280;61560;33.718;73.040;2022-10-16T02:04:45;95005.03;;;20.22;64.56
73332;BME280;61560;33.718;73.040;2022-10-16T02:07:13;95008.38;;;20.35;63.97
73332;BME280;61560;33.718;73.040;2022-10-16T02:09:40;95001.50;;;20.54;63.72
73332;BME280;61560;33.718;73.040;2022-10-16T02:12:26;95008.47;;;20.73;63.42
73332;BME280;61560;33.718;73.040;2022-10-16T02:14:54;95014.09;;;20.88;62.90
73332;BME280;61560;33.718;73.040;2022-10-16T02:17:21;95018.66;;;21.00;62.24
73332;BME280;61560;33.718;73.040;2022-10-16T02:19:48;95015.84;;;21.09;61.71
73332;BME280;61560;33.718;73.040;2022-10-16T02:22:21;95017.88;;;21.23;61.41
73332;BME280;61560;33.718;73.040;2022-10-16T02:24:59;95030.13;;;21.40;61.28
73332;BME280;61560;33.718;73.040;2022-10-16T02:28:27;95037.06;;;21.59;60.98
73332;BME280;61560;33.718;73.040;2022-10-16T02:31:04;95042.00;;;21.79;60.51
73332;BME280;61560;33.718;73.040;2022-10-16T02:33:33;95041.56;;;21.95;59.66
73332;BME280;61560;33.718;73.040;2022-10-16T02:36:01;95049.22;;;22.15;59.14
73332;BME280;61560;33.718;73.040;2022-10-16T02:38:29;95050.78;;;22.30;58.62
73332;BME280;61560;33.718;73.040;2022-10-16T02:40:56;95059.97;;;22.51;58.17
73332;BME280;61560;33.718;73.040;2022-10-16T02:43:25;95056.50;;;22.91;57.31
73332;BME280;61560;33.718;73.040;2022-10-16T02:45:52;95050.91;;;23.45;55.37
73332;BME280;61560;33.718;73.040;2022-10-16T02:48:18;95061.13;;;24.00;53.65
73332;BME280;61560;33.718;73.040;2022-10-16T02:50:45;95063.47;;;24.27;52.22
73332;BME280;61560;33.718;73.040;2022-10-16T02:53:11;95062.06;;;24.42;51.93
73332;BME280;61560;33.718;73.040;2022-10-16T02:55:38;95066.78;;;24.57;51.80
73332;BME280;61560;33.718;73.040;2022-10-16T02:58:07;95069.00;;;24.84;50.74
73332;BME280;61560;33.718;73.040;2022-10-16T03:00:33;95070.34;;;25.36;48.88
73332;BME280;61560;33.718;73.040;2022-10-16T03:03:01;95071.56;;;25.88;47.91
73332;BME280;61560;33.718;73.040;2022-10-16T03:05:27;95075.28;;;26.55;46.41
73332;BME280;61560;33.718;73.040;2022-10-16T03:07:54;95064.91;;;27.46;44.36
73332;BME280;61560;33.718;73.040;2022-10-16T03:10:20;95069.31;;;28.40;42.07
73332;BME280;61560;33.718;73.040;2022-10-16T03:12:47;95072.66;;;29.28;40.27
73332;BME280;61560;33.718;73.040;2022-10-16T03:15:13;95068.09;;;30.29;38.43
73332;BME280;61560;33.718;73.040;2022-10-16T03:17:42;95069.50;;;31.30;36.40
73332;BME280;61560;33.718;73.040;2022-10-16T03:20:09;95072.91;;;32.07;34.43
73332;BME280;61560;33.718;73.040;2022-10-16T03:22:36;95071.19;;;32.72;32.72
73332;BME280;61560;33.718;73.040;2022-10-16T03:25:02;95078.59;;;33.16;31.03
73332;BME280;61560;33.718;73.040;2022-10-16T03:27:30;95078.31;;;33.76;30.81
73332;BME280;61560;33.718;73.040;2022-10-16T03:29:56;95080.94;;;34.10;30.21
73332;BME280;61560;33.718;73.040;2022-10-16T03:32:26;95085.91;;;34.17;29.43
73332;BME280;61560;33.718;73.040;2022-10-16T03:34:54;95093.47;;;34.57;29.32
73332;BME280;61560;33.718;73.040;2022-10-16T03:37:25;95099.94;;;34.15;29.94
73332;BME280;61560;33.718;73.040;2022-10-16T03:39:51;95095.91;;;34.03;29.84
73332;BME280;61560;33.718;73.040;2022-10-16T03:42:18;95097.13;;;34.22;29.86
73332;BME280;61560;33.718;73.040;2022-10-16T03:47:59;95095.09;;;35.72;27.72
73332;BME280;61560;33.718;73.040;2022-10-16T03:50:25;95103.34;;;36.30;27.07
73332;BME280;61560;33.718;73.040;2022-10-16T03:52:52;95102.69;;;36.54;26.48
73332;BME280;61560;33.718;73.040;2022-10-16T03:55:18;95105.72;;;36.96;26.59
73332;BME280;61560;33.718;73.040;2022-10-16T04:13:20;95111.50;;;39.98;20.73
73332;BME280;61560;33.718;73.040;2022-10-16T04:15:47;95112.72;;;40.34;20.65
73332;BME280;61560;33.718;73.040;2022-10-16T04:18:13;95106.53;;;40.37;19.73
73332;BME280;61560;33.718;73.040;2022-10-16T04:20:40;95109.13;;;40.62;19.40
73332;BME280;61560;33.718;73.040;2022-10-16T04:23:07;95106.66;;;40.97;19.48
73332;BME280;61560;33.718;73.040;2022-10-16T04:25:33;95106.53;;;40.95;19.36
73332;BME280;61560;33.718;73.040;2022-10-16T04:28:00;95109.97;;;41.03;19.09
73332;BME280;61560;33.718;73.040;2022-10-16T04:30:27;95116.44;;;41.13;19.49
73332;BME280;61560;33.718;73.040;2022-10-16T04:32:53;95110.16;;;41.45;18.78
73332;BME280;61560;33.718;73.040;2022-10-16T04:35:21;95107.47;;;41.99;18.29
73332;BME280;61560;33.718;73.040;2022-10-16T04:37:48;95105.00;;;42.47;17.79
73332;BME280;61560;33.718;73.040;2022-10-16T04:40:15;95108.03;;;42.49;17.31
73332;BME280;61560;33.718;73.040;2022-10-16T04:42:41;95111.19;;;42.32;17.35
73332;BME280;61560;33.718;73.040;2022-10-16T04:45:08;95103.44;;;42.13;17.62
73332;BME280;61560;33.718;73.040;2022-10-16T04:47:35;95104.25;;;42.25;18.00
73332;BME280;61560;33.718;73.040;2022-10-16T04:50:02;95095.81;;;42.60;17.98
73332;BME280;61560;33.718;73.040;2022-10-16T04:52:28;95099.53;;;42.51;17.90
73332;BME280;61560;33.718;73.040;2022-10-16T04:54:58;95097.31;;;42.40;17.80
73332;BME280;61560;33.718;73.040;2022-10-16T04:57:30;95094.81;;;42.34;18.10
73332;BME280;61560;33.718;73.040;2022-10-16T04:59:56;95094.06;;;42.55;18.21
73332;BME280;61560;33.718;73.040;2022-10-16T05:02:23;95089.09;;;42.67;17.96
73332;BME280;61560;33.718;73.040;2022-10-16T05:04:50;95084.25;;;42.49;17.11
73332;BME280;61560;33.718;73.040;2022-10-16T05:07:17;95091.38;;;42.48;17.69
73332;BME280;61560;33.718;73.040;2022-10-16T05:09:44;95088.53;;;41.75;17.75
73332;BME280;61560;33.718;73.040;2022-10-16T05:12:11;95092.00;;;40.83;18.08
73332;BME280;61560;33.718;73.040;2022-10-16T05:14:37;95097.25;;;39.91;19.28
73332;BME280;61560;33.718;73.040;2022-10-16T05:17:04;95086.50;;;39.00;20.88
73332;BME280;61560;33.718;73.040;2022-10-16T05:19:30;95081.97;;;38.19;22.02
73332;BME280;61560;33.718;73.040;2022-10-16T05:21:57;95094.75;;;37.42;22.97
73332;BME280;61560;33.718;73.040;2022-10-16T05:24:23;95086.88;;;36.61;24.07
73332;BME280;61560;33.718;73.040;2022-10-16T05:26:51;95082.91;;;35.86;24.75
73332;BME280;61560;33.718;73.040;2022-10-16T05:29:17;95093.06;;;35.34;25.98
73332;BME280;61560;33.718;73.040;2022-10-16T05:31:45;95100.13;;;34.52;27.01
73332;BME280;61560;33.718;73.040;2022-10-16T05:34:11;95093.28;;;34.12;28.43
73332;BME280;61560;33.718;73.040;2022-10-16T05:36:38;95086.81;;;33.76;29.26
73332;BME280;61560;33.718;73.040;2022-10-16T05:39:05;95083.84;;;33.33;29.90
73332;BME280;61560;33.718;73.040;2022-10-16T05:41:31;95086.97;;;33.01;30.36
73332;BME280;61560;33.718;73.040;2022-10-16T05:43:58;95077.06;;;32.74;30.11
73332;BME280;61560;33.718;73.040;2022-10-16T05:46:24;95078.31;;;32.65;30.50
73332;BME280;61560;33.718;73.040;2022-10-16T05:48:54;95075.38;;;32.58;31.36
73332;BME280;61560;33.718;73.040;2022-10-16T05:51:20;95081.19;;;32.52;31.79
73332;BME280;61560;33.718;73.040;2022-10-16T05:53:47;95072.88;;;32.20;31.37
73332;BME280;61560;33.718;73.040;2022-10-16T05:56:13;95067.69;;;31.98;32.25
73332;BME280;61560;33.718;73.040;2022-10-16T05:58:40;95066.78;;;31.90;32.42
73332;BME280;61560;33.718;73.040;2022-10-16T06:01:17;95054.59;;;31.82;32.93
73332;BME280;61560;33.718;73.040;2022-10-16T06:03:45;95056.47;;;31.67;32.64
73332;BME280;61560;33.718;73.040;2022-10-16T06:06:16;95057.91;;;31.60;32.97
73332;BME280;61560;33.718;73.040;2022-10-16T06:08:44;95052.56;;;31.43;33.31
73332;BME280;61560;33.718;73.040;2022-10-16T06:11:16;95040.47;;;31.43;33.02
73332;BME280;61560;33.718;73.040;2022-10-16T06:13:44;95043.28;;;31.43;33.48
73332;BME280;61560;33.718;73.040;2022-10-16T06:16:12;95042.41;;;31.35;33.87
73332;BME280;61560;33.718;73.040;2022-10-16T06:18:39;95035.66;;;31.25;34.12
73332;BME280;61560;33.718;73.040;2022-10-16T06:21:18;95038.47;;;31.12;34.33
73332;BME280;61560;33.718;73.040;2022-10-16T06:23:46;95028.56;;;31.05;34.81
73332;BME280;61560;33.718;73.040;2022-10-16T06:26:16;95023.00;;;31.00;34.98
73332;BME280;61560;33.718;73.040;2022-10-16T06:28:43;95023.44;;;30.91;35.13
73332;BME280;61560;33.718;73.040;2022-10-16T06:31:11;95018.91;;;30.82;35.51
73332;BME280;61560;33.718;73.040;2022-10-16T06:33:40;95012.63;;;30.89;35.53
73332;BME280;61560;33.718;73.040;2022-10-16T06:36:09;95013.19;;;30.88;35.92
73332;BME280;61560;33.718;73.040;2022-10-16T06:38:37;95003.19;;;30.87;35.71
73332;BME280;61560;33.718;73.040;2022-10-16T06:41:05;95005.84;;;30.79;36.38
73332;BME280;61560;33.718;73.040;2022-10-16T06:43:33;94999.22;;;30.77;35.75
73332;BME280;61560;33.718;73.040;2022-10-16T06:46:05;94991.41;;;30.83;36.07
73332;BME280;61560;33.718;73.040;2022-10-16T06:48:34;94993.47;;;30.82;36.51
73332;BME280;61560;33.718;73.040;2022-10-16T06:53:33;94994.38;;;30.90;36.32
73332;BME280;61560;33.718;73.040;2022-10-16T06:56:23;94986.38;;;30.76;36.58
73332;BME280;61560;33.718;73.040;2022-10-16T06:58:51;94979.94;;;30.75;36.71
73332;BME280;61560;33.718;73.040;2022-10-16T07:01:20;94981.81;;;30.73;37.01
73332;BME280;61560;33.718;73.040;2022-10-16T07:03:47;94976.78;;;30.65;37.07
73332;BME280;61560;33.718;73.040;2022-10-16T07:06:16;94968.94;;;30.58;36.78
73332;BME280;61560;33.718;73.040;2022-10-16T07:08:46;94963.47;;;30.47;37.61
73332;BME280;61560;33.718;73.040;2022-10-16T07:11:15;94963.69;;;30.49;37.75
73332;BME280;61560;33.718;73.040;2022-10-16T07:13:44;94956.16;;;30.39;37.42
73332;BME280;61560;33.718;73.040;2022-10-16T07:16:14;94957.41;;;30.25;38.02
73332;BME280;61560;33.718;73.040;2022-10-16T07:18:43;94955.84;;;30.11;37.72
73332;BME280;61560;33.718;73.040;2022-10-16T07:21:17;94953.25;;;30.13;37.93
73332;BME280;61560;33.718;73.040;2022-10-16T07:23:45;94953.03;;;30.24;38.26
73332;BME280;61560;33.718;73.040;2022-10-16T07:26:12;94947.38;;;30.24;38.31
73332;BME280;61560;33.718;73.040;2022-10-16T07:28:39;94939.13;;;30.26;37.98
73332;BME280;61560;33.718;73.040;2022-10-16T07:31:09;94934.19;;;30.32;37.92
73332;BME280;61560;33.718;73.040;2022-10-16T07:33:38;94926.38;;;30.38;37.74
73332;BME280;61560;33.718;73.040;2022-10-16T07:36:05;94923.78;;;30.40;37.36
73332;BME280;61560;33.718;73.040;2022-10-16T07:38:34;94923.13;;;30.47;37.40
73332;BME280;61560;33.718;73.040;2022-10-16T07:41:06;94919.97;;;30.50;37.15
73332;BME280;61560;33.718;73.040;2022-10-16T07:43:33;94915.09;;;30.51;36.47
73332;BME280;61560;33.718;73.040;2022-10-16T07:46:00;94908.88;;;30.52;36.49
73332;BME280;61560;33.718;73.040;2022-10-16T07:48:29;94909.88;;;30.55;37.31
73332;BME280;61560;33.718;73.040;2022-10-16T07:51:00;94902.16;;;30.55;37.14
73332;BME280;61560;33.718;73.040;2022-10-16T07:53:27;94905.00;;;30.55;37.11
73332;BME280;61560;33.718;73.040;2022-10-16T07:56:01;94893.47;;;30.53;36.98
73332;BME280;61560;33.718;73.040;2022-10-16T07:58:30;94897.28;;;30.56;36.68
73332;BME280;61560;33.718;73.040;2022-10-16T08:00:57;94900.97;;;30.64;36.60
73332;BME280;61560;33.718;73.040;2022-10-16T08:03:25;94890.66;;;30.66;36.00
73332;BME280;61560;33.718;73.040;2022-10-16T08:05:52;94880.53;;;30.58;36.11
73332;BME280;61560;33.718;73.040;2022-10-16T08:08:19;94882.81;;;30.59;36.58
73332;BME280;61560;33.718;73.040;2022-10-16T08:10:45;94888.69;;;30.61;36.90
73332;BME280;61560;33.718;73.040;2022-10-16T08:13:15;94881.41;;;30.66;37.13
73332;BME280;61560;33.718;73.040;2022-10-16T08:15:43;94873.91;;;30.68;36.15
73332;BME280;61560;33.718;73.040;2022-10-16T08:18:13;94875.84;;;30.60;35.51
73332;BME280;61560;33.718;73.040;2022-10-16T08:20:41;94869.22;;;30.58;35.98
73332;BME280;61560;33.718;73.040;2022-10-16T08:23:13;94868.56;;;30.65;36.31
73332;BME280;61560;33.718;73.040;2022-10-16T08:25:40;94868.69;;;30.73;36.01
73332;BME280;61560;33.718;73.040;2022-10-16T08:28:09;94858.13;;;30.73;35.73
73332;BME280;61560;33.718;73.040;2022-10-16T08:30:36;94848.56;;;30.76;35.81
73332;BME280;61560;33.718;73.040;2022-10-16T08:33:03;94844.63;;;30.79;36.24
73332;BME280;61560;33.718;73.040;2022-10-16T08:35:30;94844.31;;;30.83;35.84
73332;BME280;61560;33.718;73.040;2022-10-16T08:37:56;94839.19;;;30.81;34.68
73332;BME280;61560;33.718;73.040;2022-10-16T08:40:28;94840.84;;;30.77;34.70
73332;BME280;61560;33.718;73.040;2022-10-16T08:43:21;94835.28;;;30.71;34.80
73332;BME280;61560;33.718;73.040;2022-10-16T08:48:59;94826.56;;;30.69;35.01
73332;BME280;61560;33.718;73.040;2022-10-16T08:51:35;94828.66;;;30.68;34.13
73332;BME280;61560;33.718;73.040;2022-10-16T08:54:08;94831.38;;;30.61;33.71
73332;BME280;61560;33.718;73.040;2022-10-16T08:56:39;94828.09;;;30.57;33.77
73332;BME280;61560;33.718;73.040;2022-10-16T08:59:10;94823.53;;;30.54;33.89
73332;BME280;61560;33.718;73.040;2022-10-16T09:01:44;94825.81;;;30.55;33.50
73332;BME280;61560;33.718;73.040;2022-10-16T09:07:32;94814.94;;;30.46;33.10
73332;BME280;61560;33.718;73.040;2022-10-16T09:10:26;94819.31;;;30.47;33.73
73332;BME280;61560;33.718;73.040;2022-10-16T09:18:15;94812.25;;;30.54;32.84
73332;BME280;61560;33.718;73.040;2022-10-16T09:20:57;94801.78;;;30.49;32.94
73332;BME280;61560;33.718;73.040;2022-10-16T09:23:30;94809.28;;;30.46;32.51
73332;BME280;61560;33.718;73.040;2022-10-16T09:25:58;94804.19;;;30.45;32.23
73332;BME280;61560;33.718;73.040;2022-10-16T09:28:25;94807.78;;;30.45;31.93
73332;BME280;61560;33.718;73.040;2022-10-16T09:30:52;94801.13;;;30.43;32.28
73332;BME280;61560;33.718;73.040;2022-10-16T09:33:23;94803.41;;;30.44;31.69
73332;BME280;61560;33.718;73.040;2022-10-16T09:35:53;94800.38;;;30.42;31.65
73332;BME280;61560;33.718;73.040;2022-10-16T09:38:29;94798.88;;;30.41;31.51
73332;BME280;61560;33.718;73.040;2022-10-16T09:41:21;94803.75;;;30.41;31.04
73332;BME280;61560;33.718;73.040;2022-10-16T09:46:29;94804.59;;;30.36;32.12
73332;BME280;61560;33.718;73.040;2022-10-16T09:49:23;94803.66;;;30.33;32.36
73332;BME280;61560;33.718;73.040;2022-10-16T09:52:03;94806.03;;;30.29;33.00
73332;BME280;61560;33.718;73.040;2022-10-16T09:54:30;94800.66;;;30.26;33.08
73332;BME280;61560;33.718;73.040;2022-10-16T09:57:13;94805.66;;;30.20;32.81
73332;BME280;61560;33.718;73.040;2022-10-16T09:59:48;94804.22;;;30.13;32.91
73332;BME280;61560;33.718;73.040;2022-10-16T10:02:44;94804.00;;;30.11;32.98
73332;BME280;61560;33.718;73.040;2022-10-16T10:05:23;94802.28;;;30.08;33.44
73332;BME280;61560;33.718;73.040;2022-10-16T10:08:02;94803.34;;;30.05;34.52
73332;BME280;61560;33.718;73.040;2022-10-16T10:10:36;94805.22;;;30.03;34.46
73332;BME280;61560;33.718;73.040;2022-10-16T10:13:20;94804.22;;;30.00;34.42
73332;BME280;61560;33.718;73.040;2022-10-16T10:15:48;94804.00;;;29.98;34.73
73332;BME280;61560;33.718;73.040;2022-10-16T10:18:17;94805.28;;;29.97;34.73
73332;BME280;61560;33.718;73.040;2022-10-16T10:20:46;94799.53;;;29.89;34.76
73332;BME280;61560;33.718;73.040;2022-10-16T10:23:27;94803.66;;;29.88;34.53
73332;BME280;61560;33.718;73.040;2022-10-16T10:26:08;94799.94;;;29.80;34.87
73332;BME280;61560;33.718;73.040;2022-10-16T10:29:01;94806.66;;;29.77;34.96
73332;BME280;61560;33.718;73.040;2022-10-16T10:36:46;94809.41;;;29.64;35.28
73332;BME280;61560;33.718;73.040;2022-10-16T10:39:30;94812.00;;;29.62;35.64
73332;BME280;61560;33.718;73.040;2022-10-16T10:42:13;94811.78;;;29.60;35.53
73332;BME280;61560;33.718;73.040;2022-10-16T10:53:17;94814.66;;;29.42;35.94
73332;BME280;61560;33.718;73.040;2022-10-16T10:56:08;94820.16;;;29.34;36.80
73332;BME280;61560;33.718;73.040;2022-10-16T11:09:46;94822.06;;;29.07;37.06
73332;BME280;61560;33.718;73.040;2022-10-16T11:12:29;94832.13;;;29.03;37.67
73332;BME280;61560;33.718;73.040;2022-10-16T11:17:47;94830.75;;;28.91;37.13
73332;BME280;61560;33.718;73.040;2022-10-16T11:20:34;94832.88;;;28.85;37.73
73332;BME280;61560;33.718;73.040;2022-10-16T11:23:18;94834.47;;;28.80;38.02
73332;BME280;61560;33.718;73.040;2022-10-16T11:25:50;94835.81;;;28.74;38.61
73332;BME280;61560;33.718;73.040;2022-10-16T11:28:25;94842.31;;;28.69;39.40
73332;BME280;61560;33.718;73.040;2022-10-16T11:33:36;94847.00;;;28.61;39.73
73332;BME280;61560;33.718;73.040;2022-10-16T11:41:48;94851.03;;;28.41;40.16
73332;BME280;61560;33.718;73.040;2022-10-16T11:50:33;94848.91;;;28.23;41.47
73332;BME280;61560;33.718;73.040;2022-10-16T11:53:16;94865.13;;;28.17;41.48
73332;BME280;61560;33.718;73.040;2022-10-16T11:55:47;94864.41;;;28.11;41.63
73332;BME280;61560;33.718;73.040;2022-10-16T12:06:30;94866.75;;;27.72;44.57
73332;BME280;61560;33.718;73.040;2022-10-16T12:09:01;94861.75;;;27.59;44.83
73332;BME280;61560;33.718;73.040;2022-10-16T12:17:23;94876.03;;;27.20;45.31
73332;BME280;61560;33.718;73.040;2022-10-16T12:20:25;94878.94;;;27.04;45.54
73332;BME280;61560;33.718;73.040;2022-10-16T12:22:54;94875.41;;;26.92;46.05
73332;BME280;61560;33.718;73.040;2022-10-16T12:25:27;94885.16;;;26.86;45.64
73332;BME280;61560;33.718;73.040;2022-10-16T12:28:27;94884.44;;;26.74;45.47
73332;BME280;61560;33.718;73.040;2022-10-16T12:30:57;94878.28;;;26.64;46.06
73332;BME280;61560;33.718;73.040;2022-10-16T12:35:53;94889.59;;;26.53;45.69
73332;BME280;61560;33.718;73.040;2022-10-16T12:38:36;94886.53;;;26.46;46.18
73332;BME280;61560;33.718;73.040;2022-10-16T12:41:07;94887.06;;;26.39;46.13
73332;BME280;61560;33.718;73.040;2022-10-16T12:43:40;94898.31;;;26.33;46.16
73332;BME280;61560;33.718;73.040;2022-10-16T12:48:40;94899.59;;;26.21;45.88
73332;BME280;61560;33.718;73.040;2022-10-16T12:51:19;94900.38;;;26.16;46.12
73332;BME280;61560;33.718;73.040;2022-10-16T12:54:12;94898.84;;;26.10;46.52
73332;BME280;61560;33.718;73.040;2022-10-16T14:04:42;94959.41;;;24.71;40.90
73332;BME280;61560;33.718;73.040;2022-10-16T14:07:25;94951.66;;;24.97;42.65
73332;BME280;61560;33.718;73.040;2022-10-16T14:09:54;94947.56;;;24.98;40.88
73332;BME280;61560;33.718;73.040;2022-10-16T14:12:22;94952.16;;;24.95;40.28
73332;BME280;61560;33.718;73.040;2022-10-16T14:14:52;94961.06;;;24.94;39.68
73332;BME280;61560;33.718;73.040;2022-10-16T14:17:23;94962.06;;;24.91;39.61
73332;BME280;61560;33.718;73.040;2022-10-16T14:19:55;94964.84;;;24.85;39.71
73332;BME280;61560;33.718;73.040;2022-10-16T14:22:40;94966.63;;;24.83;39.60
73332;BME280;61560;33.718;73.040;2022-10-16T14:30:33;94985.69;;;24.73;40.02
73332;BME280;61560;33.718;73.040;2022-10-16T14:33:35;94987.88;;;24.64;39.99
73332;BME280;61560;33.718;73.040;2022-10-16T14:36:13;94996.22;;;24.53;40.32
73332;BME280;61560;33.718;73.040;2022-10-16T14:38:43;94999.19;;;24.44;40.75
73332;BME280;61560;33.718;73.040;2022-10-16T14:41:15;94998.91;;;24.36;40.95
73332;BME280;61560;33.718;73.040;2022-10-16T14:43:43;95005.44;;;24.27;41.80
73332;BME280;61560;33.718;73.040;2022-10-16T14:46:18;94998.00;;;24.19;42.09
73332;BME280;61560;33.718;73.040;2022-10-16T14:48:49;95000.75;;;24.13;42.50
73332;BME280;61560;33.718;73.040;2022-10-16T14:51:17;95005.28;;;24.05;43.19
73332;BME280;61560;33.718;73.040;2022-10-16T14:53:46;95009.78;;;24.03;43.35
73332;BME280;61560;33.718;73.040;2022-10-16T14:56:21;95007.72;;;23.98;44.15
73332;BME280;61560;33.718;73.040;2022-10-16T14:58:52;95007.50;;;24.01;44.34
73332;BME280;61560;33.718;73.040;2022-10-16T15:01:20;95012.13;;;24.04;44.59
73332;BME280;61560;33.718;73.040;2022-10-16T15:03:46;95010.09;;;24.05;44.44
73332;BME280;61560;33.718;73.040;2022-10-16T15:06:16;95019.28;;;24.05;44.87
73332;BME280;61560;33.718;73.040;2022-10-16T15:08:43;95009.03;;;24.02;44.62
73332;BME280;61560;33.718;73.040;2022-10-16T15:11:14;95021.84;;;24.09;45.08
73332;BME280;61560;33.718;73.040;2022-10-16T15:13:41;95018.25;;;24.08;45.15
73332;BME280;61560;33.718;73.040;2022-10-16T15:16:11;95018.25;;;24.08;45.55
73332;BME280;61560;33.718;73.040;2022-10-16T15:18:38;95014.22;;;24.09;45.92
73332;BME280;61560;33.718;73.040;2022-10-16T15:21:05;95013.94;;;24.07;46.22
73332;BME280;61560;33.718;73.040;2022-10-16T15:23:32;95010.59;;;24.03;46.53
73332;BME280;61560;33.718;73.040;2022-10-16T15:25:59;95013.84;;;24.02;46.25
73332;BME280;61560;33.718;73.040;2022-10-16T15:28:26;95016.09;;;23.98;46.66
73332;BME280;61560;33.718;73.040;2022-10-16T15:30:55;95010.19;;;23.90;46.54
73332;BME280;61560;33.718;73.040;2022-10-16T15:33:25;95018.81;;;23.87;46.99
73332;BME280;61560;33.718;73.040;2022-10-16T15:35:59;95015.47;;;23.83;46.84
73332;BME280;61560;33.718;73.040;2022-10-16T15:38:26;95014.91;;;23.79;47.58
73332;BME280;61560;33.718;73.040;2022-10-16T15:40:54;95017.44;;;23.77;47.71
73332;BME280;61560;33.718;73.040;2022-10-16T15:43:21;95012.81;;;23.74;47.88
73332;BME280;61560;33.718;73.040;2022-10-16T15:45:59;95020.44;;;23.73;48.12
73332;BME280;61560;33.718;73.040;2022-10-16T15:48:28;95018.16;;;23.72;47.63
73332;BME280;61560;33.718;73.040;2022-10-16T15:50:54;95031.06;;;23.69;47.98
73332;BME280;61560;33.718;73.040;2022-10-16T15:53:21;95030.75;;;23.62;48.46
73332;BME280;61560;33.718;73.040;2022-10-16T15:55:48;95035.53;;;23.55;48.31
73332;BME280;61560;33.718;73.040;2022-10-16T15:58:15;95040.00;;;23.47;48.25
73332;BME280;61560;33.718;73.040;2022-10-16T16:00:43;95044.97;;;23.38;48.18
73332;BME280;61560;33.718;73.040;2022-10-16T16:03:11;95037.94;;;23.28;48.35
73332;BME280;61560;33.718;73.040;2022-10-16T16:05:38;95038.56;;;23.17;48.33
73332;BME280;61560;33.718;73.040;2022-10-16T16:08:07;95043.88;;;23.15;48.00
73332;BME280;61560;33.718;73.040;2022-10-16T16:10:34;95044.88;;;23.12;48.55
73332;BME280;61560;33.718;73.040;2022-10-16T16:13:01;95045.09;;;23.09;49.40
73332;BME280;61560;33.718;73.040;2022-10-16T16:15:27;95050.31;;;23.01;50.10
73332;BME280;61560;33.718;73.040;2022-10-16T16:17:54;95053.53;;;22.94;50.03
73332;BME280;61560;33.718;73.040;2022-10-16T16:20:20;95049.97;;;22.94;50.56
73332;BME280;61560;33.718;73.040;2022-10-16T16:22:47;95046.97;;;22.97;50.67
73332;BME280;61560;33.718;73.040;2022-10-16T16:25:14;95051.59;;;23.00;50.66
73332;BME280;61560;33.718;73.040;2022-10-16T16:27:41;95056.13;;;22.98;51.33
73332;BME280;61560;33.718;73.040;2022-10-16T16:30:10;95050.94;;;22.91;51.18
73332;BME280;61560;33.718;73.040;2022-10-16T16:32:37;95058.19;;;22.83;52.05
73332;BME280;61560;33.718;73.040;2022-10-16T16:35:05;95056.75;;;22.72;51.86
73332;BME280;61560;33.718;73.040;2022-10-16T16:37:32;95055.72;;;22.70;52.39
73332;BME280;61560;33.718;73.040;2022-10-16T16:39:58;95057.66;;;22.64;52.59
73332;BME280;61560;33.718;73.040;2022-10-16T16:42:26;95055.44;;;22.68;52.73
73332;BME280;61560;33.718;73.040;2022-10-16T16:44:53;95048.88;;;22.71;52.52
73332;BME280;61560;33.718;73.040;2022-10-16T16:47:21;95067.19;;;22.72;52.58
73332;BME280;61560;33.718;73.040;2022-10-16T16:49:47;95067.47;;;22.74;52.47
73332;BME280;61560;33.718;73.040;2022-10-16T16:52:15;95072.63;;;22.81;52.80
73332;BME280;61560;33.718;73.040;2022-10-16T16:54:42;95077.16;;;22.78;53.08
73332;BME280;61560;33.718;73.040;2022-10-16T16:57:10;95077.16;;;22.78;52.75
73332;BME280;61560;33.718;73.040;2022-10-16T16:59:37;95068.50;;;22.76;52.80
73332;BME280;61560;33.718;73.040;2022-10-16T17:02:08;95072.34;;;22.79;52.80
73332;BME280;61560;33.718;73.040;2022-10-16T17:04:35;95069.56;;;22.79;52.83